OIKQ  Dayrestan Airport

Add Bookmark

Iran

Status
Operational
Latitude Longitude
26° 45' 16" N 55° 54' 8" E
26.754601 55.902401
Local (DST + 5) UTC (GMT + 4)
Oct 31, 2014 09:38 Oct 31, 2014 06:08
Sunrise-Sunset Local UTC
Begin Civil Twilight 05:30 02:00
Sunrise 05:54 02:24
Sunset 05:05 13:35
End Civil Twilight 05:29 13:59

Current Weather

METAR Observed MVFR
OIKQ 310500Z 06010KT 8000 SKC 29/15 Q1013 Fri, Oct 31, 2014 @ 05:00 UTC
(1 Hour, 8 Minutes ago)
Marginal Visual Flight Rules
Wind Visibility Clouds Conditions
060° at 10 knots (19 kph) 8000 meters
  • Clear skies
  • No significant weather
Temperatures Readings Precipitation
Current Temp 29°C (84°F)
Dewpoint 15°C (59°F)
Heat Index 29°C (84°F)
Humidity 43%
Altimeter 29.91"Hg
Sea Level Pressure 1013mb
Field Elevation 39.37'
None Recorded

Additional weather within a 92.6km radius of OIKQ

Map ICAO Location
OIKB 69.8km N (042°)

24 Hour Weather History

Loading
-

24 Hour Weather Graphs

Loading
-

CheckWX.com is intended as a tool to help pilots better visualize weather data. It is not intended as a substitute for an official weather briefing obtained from a Flight Service Station. CheckWX.com does not meet the FAA requirements for an official pre-flight weather briefing. Therefore, it's important that pilots still call and obtain an official FSS pre-flight weather briefing.